Evinston, Florida
Current Conditions -  °F | °C
As of 6:38 AM on Wednesday 26 Nov 2014 (Local Time) from KGNV Reporting Station
Light Rain Light Rain  
Wind Chill: 45°   Ceiling: 6500
Heat Index: 49°   Visibility: 7mi
Dew Point: 48°   Wind: 8mph
Humidity: 97%   Direction: 340°NNW
Pressure: 30.03"   Gusts: NA
Location:  29.49°N, 82.23°W
Report Text: KGNV 261138Z 34007KT 7SM -RA FEW009 OVC065 09/09 A3003 RMK AO2 P0005 T00940089
Loading
Personal Weather Stations






























Interactive Weather Map New forecast layout! Learn more

10-Day Weather Forecast

Advertisements
Track Severe Weather on mobile